Time;durP1;ratioP1;P1;durP2;ratioP2;P2;SDS_P1;SDS_P2;PMS_P1;PMS_P2;Temp;Humidity;BMP_temperature;BMP_pressure;BME280_temperature;BME280_humidity;BME280_pressure;Samples;Min_cycle;Max_cycle;Signal;HPM_P1;HPM_P2
2023/04/18 00:00:55;;;;;;;9.23;6.90;;;;;;;7.28;100.00;102864.63;4990234;28;20460;-70
2023/04/18 00:03:20;;;;;;;8.00;6.60;;;;;;;7.29;100.00;102864.53;4972008;28;20280;-70
2023/04/18 00:05:46;;;;;;;10.80;6.40;;;;;;;7.84;100.00;102944.47;4989676;28;20527;-70
2023/04/18 00:08:13;;;;;;;11.17;6.60;;;;;;;7.67;100.00;102935.25;4989712;28;20193;-70
2023/04/18 00:10:38;;;;;;;9.87;6.50;;;;;;;7.51;100.00;102932.97;4988024;28;20429;-70
2023/04/18 00:13:04;;;;;;;7.97;6.37;;;;;;;7.79;100.00;102918.16;4994046;28;20938;-70
2023/04/18 00:15:30;;;;;;;8.47;6.77;;;;;;;7.84;100.00;102949.81;4993778;28;20576;-70
2023/04/18 00:17:55;;;;;;;8.40;6.90;;;;;;;7.60;100.00;102902.81;4993813;28;20682;-70
2023/04/18 00:20:25;;;;;;;8.47;5.80;;;;;;;7.38;100.00;102894.94;4991642;28;20189;-70
2023/04/18 00:22:52;;;;;;;8.97;6.80;;;;;;;7.93;100.00;102947.25;4993319;28;20210;-70
2023/04/18 00:25:17;;;;;;;7.70;5.97;;;;;;;7.67;100.00;102954.78;4993339;28;20441;-70
2023/04/18 00:27:43;;;;;;;8.43;6.27;;;;;;;7.16;100.00;102861.16;4990760;28;20432;-70
2023/04/18 00:30:09;;;;;;;8.50;7.07;;;;;;;7.47;100.00;102956.44;4975020;28;20193;-70
2023/04/18 00:32:35;;;;;;;6.67;5.97;;;;;;;7.39;100.00;102977.56;4990308;28;20201;-70
2023/04/18 00:35:00;;;;;;;8.07;6.83;;;;;;;7.43;100.00;102956.78;4967362;28;20456;-70
2023/04/18 00:37:26;;;;;;;8.90;7.93;;;;;;;7.28;100.00;102940.22;4990415;28;20209;-70
2023/04/18 00:39:52;;;;;;;8.13;6.57;;;;;;;7.41;100.00;102962.28;4992632;28;20190;-70
2023/04/18 00:42:20;;;;;;;9.00;6.70;;;;;;;7.39;100.00;102939.34;4973569;28;20209;-70
2023/04/18 00:44:45;;;;;;;9.13;6.80;;;;;;;6.97;100.00;102889.38;4991903;28;20428;-70
2023/04/18 00:47:11;;;;;;;9.57;6.97;;;;;;;6.99;100.00;102906.06;4993381;28;20482;-70
2023/04/18 00:49:37;;;;;;;10.13;7.00;;;;;;;7.44;100.00;102943.31;4993049;28;20181;-70
2023/04/18 00:52:02;;;;;;;9.67;6.80;;;;;;;7.02;100.00;102876.47;4991476;28;20681;-70
2023/04/18 00:54:28;;;;;;;9.67;6.93;;;;;;;7.79;100.00;102958.25;4989720;28;20280;-70
2023/04/18 00:56:54;;;;;;;6.93;6.23;;;;;;;7.93;100.00;102957.94;4990986;28;20213;-70
2023/04/18 00:59:20;;;;;;;10.23;7.03;;;;;;;8.06;100.00;102951.53;4991212;28;20579;-70
2023/04/18 01:01:46;;;;;;;7.60;6.30;;;;;;;7.86;100.00;102954.06;4990895;28;20723;-70
2023/04/18 01:04:11;;;;;;;7.57;6.80;;;;;;;7.82;100.00;102954.47;4991567;28;20436;-69
2023/04/18 01:06:37;;;;;;;8.80;6.77;;;;;;;7.98;100.00;102954.00;4991641;28;20872;-70
2023/04/18 01:09:04;;;;;;;8.47;6.87;;;;;;;7.52;100.00;102862.59;4991871;28;20190;-69
2023/04/18 01:11:30;;;;;;;8.30;6.13;;;;;;;8.07;100.00;102969.25;4992024;28;20288;-70
2023/04/18 01:14:06;;;;;;;6.50;5.53;;;;;;;7.96;100.00;102953.31;4992555;28;20521;-70
2023/04/18 01:16:32;;;;;;;6.70;6.00;;;;;;;7.87;100.00;102909.50;4990641;28;20227;-70
2023/04/18 01:19:02;;;;;;;7.30;5.93;;;;;;;7.59;100.00;102887.78;4993100;28;20429;-70
2023/04/18 01:21:34;;;;;;;7.37;5.90;;;;;;;8.09;100.00;102948.59;4991317;28;20448;-70
2023/04/18 01:24:06;;;;;;;7.07;4.97;;;;;;;7.89;100.00;102913.72;4991829;28;21077;-70
2023/04/18 01:26:31;;;;;;;8.47;6.47;;;;;;;7.52;100.00;102840.34;4990938;28;20442;-70
2023/04/18 01:28:57;;;;;;;8.03;5.40;;;;;;;8.14;100.00;102939.22;4990142;28;20421;-71
2023/04/18 01:31:22;;;;;;;6.23;5.63;;;;;;;8.03;100.00;102947.28;4992477;28;20212;-70
2023/04/18 01:33:48;;;;;;;6.10;5.50;;;;;;;8.20;100.00;102915.63;4992475;28;20181;-70
2023/04/18 01:36:13;;;;;;;6.13;5.20;;;;;;;7.88;100.00;102895.16;4991917;28;20206;-70
2023/04/18 01:38:39;;;;;;;6.67;5.40;;;;;;;8.14;100.00;102938.38;4992491;28;20189;-70
2023/04/18 01:41:04;;;;;;;6.83;5.37;;;;;;;8.25;100.00;102940.13;4991424;28;20213;-70
2023/04/18 01:43:30;;;;;;;6.17;5.33;;;;;;;7.38;100.00;102802.34;4991968;28;20194;-70
2023/04/18 01:45:55;;;;;;;7.40;5.10;;;;;;;8.23;100.00;102948.28;4973160;28;20645;-69
2023/04/18 01:48:20;;;;;;;5.47;4.97;;;;;;;7.90;100.00;102877.19;4992260;28;20200;-70
2023/04/18 01:50:46;;;;;;;6.80;5.30;;;;;;;8.16;100.00;102882.97;4992277;28;20193;-70
2023/04/18 01:53:11;;;;;;;6.63;5.07;;;;;;;8.23;100.00;102902.81;4990722;28;20248;-70
2023/04/18 01:55:37;;;;;;;5.70;4.70;;;;;;;8.39;100.00;102926.44;4990464;28;20208;-69
2023/04/18 01:58:02;;;;;;;8.00;5.40;;;;;;;8.03;100.00;102877.81;4989647;28;20256;-70
2023/04/18 02:00:27;;;;;;;6.03;5.07;;;;;;;8.32;100.00;102925.25;4973377;28;20704;-70
2023/04/18 02:02:53;;;;;;;7.77;5.73;;;;;;;8.28;100.00;102922.00;4988292;28;20268;-70
2023/04/18 02:05:18;;;;;;;4.83;4.20;;;;;;;8.18;100.00;102937.13;4990511;28;20267;-70
2023/04/18 02:07:44;;;;;;;7.70;5.83;;;;;;;8.18;100.00;102937.13;4990059;28;20185;-70
2023/04/18 02:10:10;;;;;;;8.53;4.90;;;;;;;8.17;100.00;102950.63;4991084;28;20194;-70
2023/04/18 02:12:35;;;;;;;5.00;4.50;;;;;;;7.98;100.00;102933.47;4989599;28;20283;-70
2023/04/18 02:15:01;;;;;;;6.60;4.73;;;;;;;8.21;100.00;102936.00;4967244;28;20190;-70
2023/04/18 02:17:27;;;;;;;5.90;5.13;;;;;;;8.21;100.00;102939.53;4990244;28;20217;-70
2023/04/18 02:19:53;;;;;;;5.20;4.70;;;;;;;7.79;100.00;102850.53;4980167;28;20194;-70
2023/04/18 02:22:18;;;;;;;5.93;5.20;;;;;;;7.42;100.00;102801.09;4991115;28;20508;-70
2023/04/18 02:24:44;;;;;;;6.37;4.67;;;;;;;7.76;100.00;102814.25;4990644;28;20186;-70
2023/04/18 02:27:10;;;;;;;6.40;4.83;;;;;;;8.28;100.00;102931.84;4990032;28;20299;-70
2023/04/18 02:29:35;;;;;;;5.70;5.10;;;;;;;8.27;100.00;102912.25;4989575;28;20557;-70
2023/04/18 02:32:01;;;;;;;5.27;4.77;;;;;;;8.21;100.00;102899.41;4971337;28;20456;-70
2023/04/18 02:34:26;;;;;;;4.90;4.40;;;;;;;8.45;100.00;102917.88;4986335;28;20193;-70
2023/04/18 02:36:52;;;;;;;6.23;4.77;;;;;;;8.41;100.00;102907.59;4988022;28;20206;-70
2023/04/18 02:39:17;;;;;;;6.53;5.10;;;;;;;8.57;100.00;102926.66;4988816;28;20553;-70
2023/04/18 02:41:42;;;;;;;5.93;5.00;;;;;;;8.43;100.00;102929.69;4989343;28;20213;-70
2023/04/18 02:44:08;;;;;;;5.67;4.30;;;;;;;8.09;100.00;102871.09;4971810;28;20251;-70
2023/04/18 02:46:34;;;;;;;6.30;4.47;;;;;;;8.58;100.00;102923.84;4990565;28;20177;-70
2023/04/18 02:48:59;;;;;;;5.03;4.37;;;;;;;8.28;100.00;102913.97;4990749;28;20181;-70
2023/04/18 02:51:25;;;;;;;5.40;4.83;;;;;;;8.13;100.00;102917.97;4989183;28;20295;-69
2023/04/18 02:53:53;;;;;;;6.70;4.90;;;;;;;8.34;100.00;102936.66;4971207;28;20539;-70
2023/04/18 02:56:20;;;;;;;5.33;4.73;;;;;;;7.97;100.00;102894.38;4965005;28;20583;-70
2023/04/18 02:58:46;;;;;;;5.87;4.33;;;;;;;8.43;100.00;102943.06;4990445;28;20915;-70
2023/04/18 03:01:12;;;;;;;5.13;4.60;;;;;;;8.26;100.00;102923.94;4988200;28;20461;-70
2023/04/18 03:03:37;;;;;;;5.90;5.23;;;;;;;8.17;100.00;102892.66;4989824;28;20429;-70
2023/04/18 03:06:03;;;;;;;5.67;4.80;;;;;;;8.37;100.00;102939.06;4988834;28;20186;-70
2023/04/18 03:08:28;;;;;;;7.13;4.67;;;;;;;8.50;100.00;102933.50;4990287;28;20189;-70
2023/04/18 03:10:54;;;;;;;5.10;4.53;;;;;;;8.25;100.00;102914.25;4986530;28;20196;-70
2023/04/18 03:13:19;;;;;;;5.73;4.60;;;;;;;8.54;100.00;102935.81;4991016;28;20192;-70
2023/04/18 03:15:45;;;;;;;6.90;5.00;;;;;;;8.26;100.00;102921.28;4990488;28;20284;-69
2023/04/18 03:18:11;;;;;;;5.40;3.93;;;;;;;8.43;100.00;102941.25;4988649;28;20192;-71
2023/04/18 03:20:36;;;;;;;5.20;4.70;;;;;;;7.88;100.00;102855.94;4988449;28;20185;-70
2023/04/18 03:23:02;;;;;;;6.53;4.10;;;;;;;8.15;100.00;102907.97;4989618;28;20292;-70
2023/04/18 03:25:27;;;;;;;5.93;4.83;;;;;;;8.11;100.00;102952.00;4989370;28;20239;-70
2023/04/18 03:27:53;;;;;;;7.13;5.30;;;;;;;7.89;100.00;102897.69;4987974;28;20217;-70
2023/04/18 03:30:19;;;;;;;6.03;4.90;;;;;;;7.86;100.00;102905.97;4971968;28;20196;-70
2023/04/18 03:32:45;;;;;;;5.47;4.70;;;;;;;8.34;100.00;102945.53;4988754;28;20210;-70
2023/04/18 03:35:10;;;;;;;6.40;4.70;;;;;;;8.32;100.00;102970.69;4988403;28;20425;-70
2023/04/18 03:37:36;;;;;;;6.00;5.10;;;;;;;8.18;100.00;102955.84;4988403;28;20472;-70
2023/04/18 03:40:02;;;;;;;7.60;4.77;;;;;;;8.22;100.00;102962.63;4989573;28;20197;-70
2023/04/18 03:42:28;;;;;;;5.60;5.00;;;;;;;8.07;100.00;102942.53;4989753;28;20201;-70
2023/04/18 03:44:53;;;;;;;5.90;5.30;;;;;;;8.12;100.00;102973.25;4989025;28;20903;-70
2023/04/18 03:47:18;;;;;;;6.50;5.20;;;;;;;7.45;100.00;102888.94;4974241;28;20198;-70
2023/04/18 03:49:44;;;;;;;10.87;5.07;;;;;;;8.04;100.00;102991.78;4994244;28;20178;-70
2023/04/18 03:52:09;;;;;;;6.90;5.70;;;;;;;7.73;100.00;102909.84;4991990;28;20209;-69
2023/04/18 03:54:35;;;;;;;5.70;4.60;;;;;;;8.14;100.00;102957.09;4992271;28;20192;-70
2023/04/18 03:57:01;;;;;;;5.80;5.10;;;;;;;8.38;100.00;102981.72;4992308;28;20222;-70
2023/04/18 03:59:26;;;;;;;6.40;5.17;;;;;;;8.45;100.00;102981.22;4992858;28;20192;-70
2023/04/18 04:01:52;;;;;;;7.40;6.13;;;;;;;8.18;100.00;102987.06;4989967;28;20453;-70
2023/04/18 04:04:17;;;;;;;6.00;5.37;;;;;;;8.08;100.00;103011.06;4992639;28;20254;-70
2023/04/18 04:06:43;;;;;;;7.10;5.53;;;;;;;7.48;100.00;102879.81;4992171;28;20186;-70
2023/04/18 04:09:08;;;;;;;7.70;5.80;;;;;;;8.03;100.00;102989.22;4992330;28;20660;-70
2023/04/18 04:11:33;;;;;;;5.83;5.23;;;;;;;7.95;100.00;102947.09;4991308;28;20214;-70
2023/04/18 04:13:59;;;;;;;12.97;6.53;;;;;;;7.59;100.00;102894.97;4991798;28;20273;-70
2023/04/18 04:16:26;;;;;;;6.30;5.70;;;;;;;8.15;100.00;102990.84;4992508;28;20204;-70
2023/04/18 04:18:51;;;;;;;7.20;5.70;;;;;;;8.35;100.00;102983.81;4989998;28;20209;-70
2023/04/18 04:21:16;;;;;;;7.67;6.30;;;;;;;8.41;100.00;102983.31;4992645;28;20540;-70
2023/04/18 04:23:42;;;;;;;7.00;5.33;;;;;;;8.43;100.00;102976.00;4991607;28;21488;-70
2023/04/18 04:26:08;;;;;;;6.80;6.10;;;;;;;7.54;100.00;102894.50;4992848;28;20185;-70
2023/04/18 04:28:34;;;;;;;8.43;5.90;;;;;;;7.46;100.00;102841.72;4992385;28;20645;-70
2023/04/18 04:31:00;;;;;;;7.00;6.30;;;;;;;8.07;100.00;102947.88;4992386;28;20241;-70
2023/04/18 04:33:32;;;;;;;6.60;5.90;;;;;;;8.03;100.00;102925.91;4991805;28;20475;-70
2023/04/18 04:35:58;;;;;;;6.60;5.73;;;;;;;8.26;100.00;102982.75;4992268;28;21001;-70
2023/04/18 04:38:23;;;;;;;6.90;6.20;;;;;;;8.06;100.00;102956.88;4992959;28;20429;-69
2023/04/18 04:40:49;;;;;;;7.43;6.53;;;;;;;8.27;100.00;102989.78;4992741;28;20436;-70
2023/04/18 04:43:15;;;;;;;11.60;6.50;;;;;;;7.76;100.00;102934.47;4975588;28;20189;-70
2023/04/18 04:45:42;;;;;;;7.67;6.83;;;;;;;8.27;100.00;103003.16;4993195;28;20809;-70
2023/04/18 04:48:08;;;;;;;8.77;6.07;;;;;;;8.05;100.00;102982.78;4992086;28;20437;-70
2023/04/18 04:50:35;;;;;;;8.60;6.37;;;;;;;7.93;100.00;102981.13;4974383;28;20439;-70
2023/04/18 04:53:00;;;;;;;8.87;6.27;;;;;;;7.57;100.00;102931.63;4988304;28;20452;-70
2023/04/18 04:55:26;;;;;;;8.70;6.17;;;;;;;8.10;100.00;102996.59;4991624;28;20424;-70
2023/04/18 04:57:51;;;;;;;8.30;6.53;;;;;;;7.72;100.00;102958.88;4973499;28;20185;-70
2023/04/18 05:00:20;;;;;;;10.00;6.50;;;;;;;7.84;100.00;102996.13;4992078;28;20181;-70
2023/04/18 05:02:46;;;;;;;8.13;6.30;;;;;;;7.58;100.00;102974.25;4973134;28;20224;-70
2023/04/18 05:05:12;;;;;;;8.70;6.70;;;;;;;7.65;100.00;103007.47;4992439;28;20418;-70
2023/04/18 05:07:37;;;;;;;7.77;6.57;;;;;;;7.65;100.00;102998.63;4990190;28;20454;-70
2023/04/18 05:10:03;;;;;;;8.50;6.20;;;;;;;7.41;100.00;102962.28;4990603;28;20197;-70
2023/04/18 05:12:28;;;;;;;6.67;6.00;;;;;;;7.77;100.00;103000.25;4990275;28;20214;-70
2023/04/18 05:14:54;;;;;;;8.00;6.73;;;;;;;7.46;100.00;102953.88;4968266;28;20189;-70
2023/04/18 05:17:19;;;;;;;7.70;5.50;;;;;;;7.58;100.00;102989.41;4990429;28;20222;-70
2023/04/18 05:19:45;;;;;;;7.57;6.30;;;;;;;7.46;100.00;102999.25;4992808;28;20186;-70
2023/04/18 05:22:10;;;;;;;10.33;7.37;;;;;;;7.59;100.00;103002.63;4992568;28;20301;-70
2023/04/18 05:24:36;;;;;;;11.17;6.13;;;;;;;7.38;100.00;102932.31;4991748;28;20192;-70
2023/04/18 05:27:01;;;;;;;7.40;5.40;;;;;;;7.65;100.00;102998.63;4989655;28;20265;-70
2023/04/18 05:29:27;;;;;;;8.23;6.70;;;;;;;7.74;100.00;102991.66;4992688;28;20185;-70
2023/04/18 05:31:52;;;;;;;8.00;6.20;;;;;;;7.76;100.00;102998.56;4992743;28;20209;-70
2023/04/18 05:34:18;;;;;;;10.53;6.87;;;;;;;7.65;100.00;102987.94;4989943;28;20268;-70
2023/04/18 05:36:43;;;;;;;11.37;7.33;;;;;;;7.90;100.00;102995.59;4967280;28;20209;-70
2023/04/18 05:39:08;;;;;;;7.63;6.27;;;;;;;7.70;100.00;102991.91;4991407;28;20354;-70
2023/04/18 05:41:34;;;;;;;9.47;7.17;;;;;;;7.25;100.00;102952.00;4990306;28;20202;-70
2023/04/18 05:43:59;;;;;;;6.90;5.90;;;;;;;7.83;100.00;102999.75;4990049;28;20296;-70
2023/04/18 05:46:25;;;;;;;10.50;6.30;;;;;;;7.81;100.00;103004.38;4972977;28;20209;-70
2023/04/18 05:48:50;;;;;;;7.37;6.50;;;;;;;7.79;100.00;103009.00;4991807;28;20219;-70
2023/04/18 05:51:16;;;;;;;8.70;6.63;;;;;;;7.69;100.00;102976.88;4991429;28;20198;-70
2023/04/18 05:53:41;;;;;;;7.43;6.60;;;;;;;7.88;100.00;103002.03;4991557;28;20648;-70
2023/04/18 05:56:06;;;;;;;9.07;6.83;;;;;;;7.89;100.00;103004.56;4973151;28;20559;-70
2023/04/18 05:58:32;;;;;;;8.40;6.90;;;;;;;7.74;100.00;102994.34;4992104;28;20197;-70
2023/04/18 06:00:57;;;;;;;10.20;6.67;;;;;;;7.65;100.00;102951.38;4990596;28;20221;-70
2023/04/18 06:03:23;;;;;;;8.63;6.30;;;;;;;7.89;100.00;103006.41;4992256;28;20177;-70
2023/04/18 06:05:48;;;;;;;8.40;6.10;;;;;;;8.18;100.00;103013.81;4991621;28;20232;-70
2023/04/18 06:08:13;;;;;;;6.83;5.60;;;;;;;7.76;100.00;102971.84;4974599;28;20558;-70
2023/04/18 06:10:39;;;;;;;9.40;6.20;;;;;;;7.94;100.00;103017.56;4991724;28;20189;-70
2023/04/18 06:13:04;;;;;;;9.93;6.33;;;;;;;8.02;100.00;103020.44;4989294;28;20259;-70
2023/04/18 06:15:30;;;;;;;8.60;6.50;;;;;;;7.55;100.00;102933.56;4989845;28;20181;-70
2023/04/18 06:17:55;;;;;;;7.30;6.10;;;;;;;7.83;100.00;102959.66;4989471;28;20205;-70
2023/04/18 06:20:22;;;;;;;8.37;7.00;;;;;;;7.88;100.00;102965.47;4991654;28;20185;-70
2023/04/18 06:22:47;;;;;;;8.23;7.07;;;;;;;8.30;100.00;103029.66;4991612;28;20201;-70
2023/04/18 06:25:13;;;;;;;8.43;7.43;;;;;;;8.02;100.00;102969.66;4990730;28;20417;-70
2023/04/18 06:27:38;;;;;;;7.73;7.00;;;;;;;7.78;100.00;102931.63;4974424;28;20677;-70
2023/04/18 06:30:05;;;;;;;9.93;7.17;;;;;;;8.62;100.00;103028.78;4991693;28;20190;-70
2023/04/18 06:32:31;;;;;;;10.33;7.37;;;;;;;8.26;100.00;102984.59;4990933;28;20724;-69
2023/04/18 06:34:56;;;;;;;11.60;7.43;;;;;;;8.68;100.00;103035.38;4971511;28;20528;-70
2023/04/18 06:37:22;;;;;;;9.17;7.60;;;;;;;8.70;100.00;103053.00;4965738;28;20221;-70
2023/04/18 06:39:48;;;;;;;8.43;6.50;;;;;;;8.50;100.00;103017.28;4989857;28;20190;-70
2023/04/18 06:42:13;;;;;;;7.40;6.57;;;;;;;8.80;100.00;103053.09;4987617;28;20452;-70
2023/04/18 06:44:38;;;;;;;9.43;7.00;;;;;;;8.05;100.00;102928.47;4972759;28;20260;-71
2023/04/18 06:47:04;;;;;;;8.47;7.13;;;;;;;8.79;100.00;103056.72;4991562;28;20260;-70
2023/04/18 06:49:30;;;;;;;8.57;7.70;;;;;;;8.61;100.00;103002.97;4990751;28;20317;-70
2023/04/18 06:51:55;;;;;;;9.10;7.17;;;;;;;8.98;100.00;103064.00;4988292;28;20454;-70
2023/04/18 06:54:21;;;;;;;10.10;8.90;;;;;;;8.24;100.00;102957.97;4989958;28;20247;-70
2023/04/18 06:56:46;;;;;;;9.90;6.83;;;;;;;8.90;100.00;103063.81;4991066;28;20197;-70
2023/04/18 06:59:12;;;;;;;7.87;7.07;;;;;;;8.93;100.00;103067.06;4990588;28;20190;-70
2023/04/18 07:01:43;;;;;;;8.57;7.37;;;;;;;9.08;100.00;103064.88;4989508;28;20209;-70
2023/04/18 07:04:08;;;;;;;8.07;6.90;;;;;;;8.72;100.00;103010.94;4989780;28;20652;-70
2023/04/18 07:06:35;;;;;;;7.57;6.80;;;;;;;9.19;100.00;103071.97;4973252;28;20496;-70
2023/04/18 07:09:00;;;;;;;8.73;7.67;;;;;;;8.13;100.00;102936.69;4988350;28;20201;-70
2023/04/18 07:11:27;;;;;;;7.63;6.50;;;;;;;8.50;100.00;103001.22;4988666;28;20516;-70
2023/04/18 07:13:52;;;;;;;7.77;6.50;;;;;;;8.91;100.00;103046.78;4989939;28;20644;-70
2023/04/18 07:16:19;;;;;;;10.90;7.10;;;;;;;9.12;100.00;103079.72;4990259;28;20457;-70
2023/04/18 07:18:44;;;;;;;10.03;6.50;;;;;;;9.18;100.00;103062.25;4973433;28;20564;-70
2023/04/18 07:21:09;;;;;;;9.03;7.37;;;;;;;8.89;100.00;103022.00;4990635;28;20444;-69
2023/04/18 07:23:35;;;;;;;13.30;7.27;;;;;;;8.32;100.00;102920.72;4991600;28;20182;-70
2023/04/18 07:26:01;;;;;;;12.00;6.90;;;;;;;9.29;100.00;103078.25;4989987;28;20201;-70
2023/04/18 07:28:28;;;;;;;9.27;5.87;;;;;;;8.88;100.00;103006.91;4989887;28;20425;-70
2023/04/18 07:30:55;;;;;;;8.73;6.43;;;;;;;8.85;100.00;102986.59;4990625;28;20429;-70
2023/04/18 07:33:21;;;;;;;7.40;6.43;;;;;;;9.18;100.00;103081.84;4990937;28;20436;-70
2023/04/18 07:35:46;;;;;;;7.43;6.47;;;;;;;9.35;100.00;103068.81;4989350;28;20471;-70
2023/04/18 07:38:12;;;;;;;9.17;6.10;;;;;;;9.39;100.00;103076.41;4990826;28;20186;-70
2023/04/18 07:40:37;;;;;;;7.07;6.20;;;;;;;9.40;100.00;103055.84;4989848;28;20197;-70
2023/04/18 07:43:03;;;;;;;8.47;6.90;;;;;;;9.55;100.00;103073.25;4987821;28;20585;-70
2023/04/18 07:45:28;;;;;;;7.83;5.70;;;;;;;9.19;100.00;102986.31;4990458;28;20200;-70
2023/04/18 07:47:54;;;;;;;13.30;6.57;;;;;;;9.49;100.00;103061.25;4990518;28;20189;-70
2023/04/18 07:50:19;;;;;;;7.70;6.43;;;;;;;9.27;100.00;103023.94;4990780;28;20193;-70
2023/04/18 07:52:46;;;;;;;7.80;6.00;;;;;;;9.46;100.00;103050.81;4990089;28;20576;-70
2023/04/18 07:55:13;;;;;;;9.50;6.70;;;;;;;9.58;100.00;103050.69;4989895;28;20189;-70
2023/04/18 07:57:42;;;;;;;7.70;6.43;;;;;;;9.65;100.00;103071.41;4990367;28;20495;-70
2023/04/18 08:00:08;;;;;;;8.43;6.40;;;;;;;9.34;100.00;103025.09;4988690;28;20421;-70
2023/04/18 08:02:34;;;;;;;10.13;6.10;;;;;;;9.63;100.00;103038.56;4990683;28;20894;-70
2023/04/18 08:04:59;;;;;;;9.63;7.40;;;;;;;9.81;100.00;103059.31;4989646;28;20525;-70
2023/04/18 08:07:24;;;;;;;7.00;5.70;;;;;;;9.58;100.00;103013.19;4986920;28;20668;-70
2023/04/18 08:09:50;;;;;;;7.33;5.50;;;;;;;9.43;100.00;102988.59;4989519;28;20221;-70
2023/04/18 08:12:15;;;;;;;6.80;5.03;;;;;;;10.11;100.00;103059.19;4988008;28;20210;-70
2023/04/18 08:14:41;;;;;;;6.67;5.70;;;;;;;10.09;100.00;103068.34;4989996;28;20200;-70
2023/04/18 08:17:06;;;;;;;7.33;5.13;;;;;;;10.05;100.00;103065.13;4988748;28;20263;-70
2023/04/18 08:19:31;;;;;;;11.00;6.67;;;;;;;10.09;100.00;103057.63;4990365;28;20284;-70
2023/04/18 08:22:08;;;;;;;8.50;5.03;;;;;;;10.16;100.00;103064.97;4989594;28;20647;-70
2023/04/18 08:24:33;;;;;;;9.33;5.93;;;;;;;10.02;100.00;103049.31;4989649;28;20232;-70
2023/04/18 08:26:58;;;;;;;7.50;5.73;;;;;;;10.27;100.00;103064.03;4990459;28;20429;-70
2023/04/18 08:29:24;;;;;;;6.33;5.07;;;;;;;10.17;100.00;103045.19;4990237;28;20273;-70
2023/04/18 08:31:49;;;;;;;8.70;5.60;;;;;;;10.23;100.00;103053.66;4990248;28;20209;-70
2023/04/18 08:34:15;;;;;;;5.93;5.07;;;;;;;9.79;100.00;102978.19;4987570;28;20189;-71
2023/04/18 08:36:40;;;;;;;6.77;5.57;;;;;;;10.31;100.00;103057.38;4974761;28;20213;-70
2023/04/18 08:39:06;;;;;;;5.63;5.03;;;;;;;10.38;100.00;103061.16;4975709;28;20197;-70
2023/04/18 08:41:36;;;;;;;6.60;5.20;;;;;;;10.31;100.00;103045.78;4992428;28;20225;-70
2023/04/18 08:44:02;;;;;;;7.90;5.17;;;;;;;10.24;100.00;103058.03;4988538;28;20452;-70
2023/04/18 08:46:28;;;;;;;8.33;5.83;;;;;;;10.40;100.00;103055.66;4989722;28;20417;-70
2023/04/18 08:48:58;;;;;;;6.10;4.27;;;;;;;10.46;100.00;103065.81;4991167;28;20466;-70
2023/04/18 08:51:23;;;;;;;6.80;5.40;;;;;;;10.49;100.00;103062.00;4988608;28;20445;-70
2023/04/18 08:53:49;;;;;;;6.47;5.07;;;;;;;10.48;100.00;103053.09;4990800;28;21057;-70
2023/04/18 08:56:15;;;;;;;8.13;5.50;;;;;;;10.07;100.00;102977.34;4991070;28;20676;-70
2023/04/18 08:58:41;;;;;;;5.27;4.20;;;;;;;10.54;100.00;103038.28;4991415;28;20440;-70
2023/04/18 09:01:06;;;;;;;6.90;5.00;;;;;;;10.28;100.00;102984.38;4991736;28;20942;-70
2023/04/18 09:03:50;;;;;;;6.00;5.13;;;;;;;10.82;100.00;103057.97;4989145;28;20185;-70
2023/04/18 09:06:17;;;;;;;6.23;4.57;;;;;;;10.89;100.00;103066.28;4992458;28;20530;-70
2023/04/18 09:08:56;;;;;;;7.40;5.20;;;;;;;10.79;100.00;103048.38;4990903;28;20918;-70
2023/04/18 09:11:27;;;;;;;6.30;4.40;;;;;;;10.89;100.00;103055.56;4991484;28;20448;-70
2023/04/18 09:13:55;;;;;;;7.97;4.87;;;;;;;10.75;100.00;103044.28;4990869;28;20424;-70
2023/04/18 09:16:21;;;;;;;6.50;4.43;;;;;;;10.92;100.00;103064.16;4990899;28;20469;-70
2023/04/18 09:19:13;;;;;;;5.80;5.00;;;;;;;11.07;100.00;103048.41;4991198;28;20428;-70
2023/04/18 09:21:41;;;;;;;5.97;5.37;;;;;;;10.80;100.00;103030.44;4990107;28;20462;-70
2023/04/18 09:24:19;;;;;;;6.40;4.60;;;;;;;10.96;100.00;103043.22;4989349;28;20433;-70
2023/04/18 09:26:46;;;;;;;4.43;3.83;;;;;;;11.15;100.00;103047.66;4990436;28;20935;-70
2023/04/18 09:29:12;;;;;;;7.13;4.13;;;;;;;10.99;100.00;103049.16;4990798;28;20516;-70
2023/04/18 09:32:01;;;;;;;5.53;4.60;;;;;;;10.88;100.00;103008.19;4990067;28;21212;-70
2023/04/18 09:34:27;;;;;;;7.77;4.63;;;;;;;11.19;100.00;103046.38;4992267;28;20194;-70
2023/04/18 09:37:06;;;;;;;4.83;4.33;;;;;;;10.69;100.00;102961.66;4991373;28;20476;-70
2023/04/18 09:39:32;;;;;;;4.60;4.10;;;;;;;11.31;100.00;103050.53;4992106;28;20432;-70
2023/04/18 09:41:59;;;;;;;4.80;4.30;;;;;;;11.21;100.00;102999.56;4974042;28;20828;-69
2023/04/18 09:44:25;;;;;;;6.13;4.30;;;;;;;11.30;100.00;103017.44;4989840;28;20667;-70
2023/04/18 09:46:50;;;;;;;5.43;3.40;;;;;;;11.43;100.00;103045.81;4991589;28;20904;-70
2023/04/18 09:49:16;;;;;;;4.63;3.90;;;;;;;11.43;100.00;103024.34;4992003;28;20213;-70
2023/04/18 09:51:46;;;;;;;5.10;3.77;;;;;;;11.36;100.00;103015.16;4991973;28;20293;-70
2023/04/18 09:54:17;;;;;;;5.53;3.60;;;;;;;11.39;100.00;103026.44;4988942;28;20189;-70
2023/04/18 09:56:49;;;;;;;4.30;3.47;;;;;;;11.63;100.00;103033.09;4990487;28;20465;-70
2023/04/18 09:59:21;;;;;;;4.10;3.00;;;;;;;11.38;100.00;103008.66;4990531;28;20416;-70
2023/04/18 10:01:48;;;;;;;4.27;3.57;;;;;;;11.59;100.00;103040.63;4990578;28;20457;-70
2023/04/18 10:04:15;;;;;;;5.43;3.47;;;;;;;11.69;100.00;103033.34;4990307;28;20460;-70
2023/04/18 10:06:41;;;;;;;4.73;3.53;;;;;;;11.66;100.00;103024.75;4991613;28;20443;-70
2023/04/18 10:09:08;;;;;;;4.90;3.20;;;;;;;11.95;100.00;103036.16;4991086;28;20479;-70
2023/04/18 10:11:34;;;;;;;4.00;2.90;;;;;;;11.35;100.00;102971.34;4991389;28;20538;-70
2023/04/18 10:14:05;;;;;;;3.63;3.33;;;;;;;11.35;100.00;103000.91;4991432;28;20432;-70
2023/04/18 10:16:31;;;;;;;3.50;3.00;;;;;;;11.56;100.00;103032.84;4990605;28;20480;-70
2023/04/18 10:19:17;;;;;;;3.23;2.90;;;;;;;11.44;100.00;103017.94;4991541;28;20512;-70
2023/04/18 10:21:56;;;;;;;2.80;2.60;;;;;;;11.41;100.00;102986.00;4990682;28;20460;-70
2023/04/18 10:24:43;;;;;;;3.83;2.47;;;;;;;11.93;100.00;103037.28;4990323;28;20481;-70
2023/04/18 10:27:09;;;;;;;3.40;2.80;;;;;;;11.89;100.00;103035.88;4991244;28;20499;-70
2023/04/18 10:29:55;;;;;;;3.60;2.80;;;;;;;12.18;100.00;103022.22;4991694;28;20512;-70
2023/04/18 10:32:21;;;;;;;4.00;3.13;;;;;;;12.32;100.00;103021.63;4988995;28;20207;-70
2023/04/18 10:34:48;;;;;;;4.00;2.30;;;;;;;12.62;100.00;103019.50;4991276;28;20521;-70
2023/04/18 10:37:14;;;;;;;2.57;2.10;;;;;;;12.37;100.00;103021.16;4990812;28;20519;-71
2023/04/18 10:39:52;;;;;;;2.93;2.63;;;;;;;12.28;100.00;103009.50;4990872;28;20993;-70
2023/04/18 10:42:18;;;;;;;3.70;2.70;;;;;;;11.65;100.00;102977.34;4990294;28;20527;-70
2023/04/18 10:45:16;;;;;;;4.40;2.53;;;;;;;12.17;100.00;103010.59;4990810;28;20515;-70
2023/04/18 10:47:41;;;;;;;2.43;2.23;;;;;;;11.75;100.00;102964.69;4991066;28;20173;-70
2023/04/18 10:50:07;;;;;;;3.00;2.30;;;;;;;12.26;100.00;103018.72;4989474;28;20799;-70
2023/04/18 10:52:33;;;;;;;6.03;2.40;;;;;;;12.44;100.00;103023.09;4990708;28;20212;-70
2023/04/18 10:55:07;;;;;;;3.07;2.30;;;;;;;12.40;100.00;103012.78;4990149;28;20205;-70
2023/04/18 10:57:40;;;;;;;3.93;2.67;;;;;;;12.68;100.00;102997.31;4990519;28;20514;-71
2023/04/18 11:00:12;;;;;;;4.23;2.73;;;;;;;12.83;100.00;103001.09;4990697;28;20419;-70
2023/04/18 11:02:39;;;;;;;4.67;2.90;;;;;;;12.39;100.00;103001.16;4991111;28;20535;-70
2023/04/18 11:05:07;;;;;;;2.97;2.60;;;;;;;12.15;100.00;102983.03;4990225;28;20425;-70
2023/04/18 11:07:39;;;;;;;3.77;2.13;;;;;;;12.31;100.00;103003.81;4989819;28;20516;-71
2023/04/18 11:10:06;;;;;;;3.73;2.70;;;;;;;12.80;100.00;102995.19;4988854;28;20428;-70
2023/04/18 11:12:34;;;;;;;3.60;2.70;;;;;;;12.82;100.00;102966.25;4990260;28;20961;-70
2023/04/18 11:15:01;;;;;;;3.13;2.30;;;;;;;12.91;100.00;102985.97;4989298;28;20456;-70
2023/04/18 11:17:34;;;;;;;3.47;1.97;;;;;;;12.84;100.00;102938.16;4990165;28;20496;-70
2023/04/18 11:20:13;;;;;;;2.80;1.77;;;;;;;13.04;100.00;102954.03;4972867;28;20804;-70